UAL3647 KBWI-KBGR
Flight info
| Callsign | UAL3647 |
|---|---|
| Flight time | 1h 17m |
| Altitude | 37000 |
| Route | DUKPN1 BROSS Q419 RBV Q22 FOXWD BOS |
| Aircraft | B739/M-SDE2E3FGHIRWXY/LB1 |
Departure
| Time | 2026-05-06 21:28 |
|---|---|
| Airport | Baltimore/Washington International Thurgood Marshall Airport (KBWI) |
Arrival
| Time | 2026-05-06 22:45 |
|---|---|
| Airport | Bangor International Airport (KBGR) |
| Time | Latitude | Longitude | Altitude | Speed | Heading |
|---|---|---|---|---|---|
| 2026-05-06 20:53 | 39.17826 | -76.67135 | 155 ft | 0 kts | 50° |
| 2026-05-06 20:54 | 39.17754 | -76.67091 | 156 ft | 0 kts | 84° |
| 2026-05-06 21:14 | 39.17754 | -76.67093 | 156 ft | 2 kts | 84° |
| 2026-05-06 21:14 | 39.17751 | -76.67125 | 155 ft | 4 kts | 84° |
| 2026-05-06 21:14 | 39.17749 | -76.67159 | 155 ft | 4 kts | 92° |
| 2026-05-06 21:14 | 39.17754 | -76.67190 | 156 ft | 4 kts | 135° |
| 2026-05-06 21:15 | 39.17772 | -76.67208 | 156 ft | 4 kts | 144° |
| 2026-05-06 21:15 | 39.17777 | -76.67213 | 156 ft | 1 kts | 144° |
| 2026-05-06 21:22 | 39.17773 | -76.67210 | 156 ft | 2 kts | 144° |
| 2026-05-06 21:22 | 39.17745 | -76.67184 | 158 ft | 8 kts | 144° |
| 2026-05-06 21:22 | 39.17683 | -76.67128 | 158 ft | 13 kts | 144° |
| 2026-05-06 21:22 | 39.17610 | -76.67059 | 158 ft | 13 kts | 144° |
| 2026-05-06 21:23 | 39.17550 | -76.66980 | 159 ft | 12 kts | 116° |
| 2026-05-06 21:23 | 39.17530 | -76.66873 | 158 ft | 12 kts | 116° |
| 2026-05-06 21:23 | 39.17467 | -76.66808 | 158 ft | 12 kts | 115° |
| 2026-05-06 21:23 | 39.17456 | -76.66704 | 158 ft | 12 kts | 94° |
| 2026-05-06 21:24 | 39.17450 | -76.66601 | 156 ft | 12 kts | 95° |
| 2026-05-06 21:24 | 39.17462 | -76.66491 | 152 ft | 13 kts | 46° |
| 2026-05-06 21:24 | 39.17528 | -76.66414 | 151 ft | 13 kts | 74° |
| 2026-05-06 21:24 | 39.17493 | -76.66311 | 150 ft | 13 kts | 124° |
| 2026-05-06 21:25 | 39.17456 | -76.66212 | 151 ft | 12 kts | 98° |
| 2026-05-06 21:25 | 39.17450 | -76.66099 | 151 ft | 14 kts | 94° |
| 2026-05-06 21:25 | 39.17441 | -76.65954 | 149 ft | 19 kts | 94° |
| 2026-05-06 21:25 | 39.17431 | -76.65779 | 152 ft | 19 kts | 94° |
| 2026-05-06 21:26 | 39.17424 | -76.65637 | 155 ft | 11 kts | 94° |
| 2026-05-06 21:26 | 39.17404 | -76.65543 | 156 ft | 11 kts | 133° |
| 2026-05-06 21:26 | 39.17333 | -76.65522 | 156 ft | 11 kts | 180° |
| 2026-05-06 21:26 | 39.17284 | -76.65578 | 155 ft | 11 kts | 262° |
| 2026-05-06 21:27 | 39.17288 | -76.65678 | 153 ft | 13 kts | 274° |
| 2026-05-06 21:27 | 39.17306 | -76.66001 | 151 ft | 69 kts | 274° |
| 2026-05-06 21:27 | 39.17357 | -76.66886 | 161 ft | 127 kts | 274° |
| 2026-05-06 21:27 | 39.17424 | -76.68232 | 168 ft | 170 kts | 272° |
| 2026-05-06 21:28 | 39.17508 | -76.69745 | 750 ft | 167 kts | 270° |
| 2026-05-06 21:28 | 39.17599 | -76.71223 | 1406 ft | 164 kts | 270° |
| 2026-05-06 21:28 | 39.17688 | -76.72719 | 1976 ft | 170 kts | 267° |
| 2026-05-06 21:28 | 39.17291 | -76.74221 | 2225 ft | 193 kts | 227° |
| 2026-05-06 21:29 | 39.16043 | -76.75056 | 2454 ft | 219 kts | 191° |
| 2026-05-06 21:29 | 39.14502 | -76.74660 | 2877 ft | 239 kts | 151° |
| 2026-05-06 21:29 | 39.13204 | -76.73272 | 3429 ft | 246 kts | 144° |
| 2026-05-06 21:29 | 39.11871 | -76.71820 | 3824 ft | 256 kts | 145° |
| 2026-05-06 21:30 | 39.10488 | -76.70361 | 4378 ft | 258 kts | 146° |
| 2026-05-06 21:30 | 39.09140 | -76.68904 | 4939 ft | 262 kts | 138° |
| 2026-05-06 21:30 | 39.08248 | -76.66820 | 5446 ft | 276 kts | 103° |
| 2026-05-06 21:30 | 39.08169 | -76.64287 | 5734 ft | 295 kts | 87° |
| 2026-05-06 21:31 | 39.08292 | -76.61592 | 6182 ft | 307 kts | 86° |
| 2026-05-06 21:31 | 39.08434 | -76.58815 | 6757 ft | 313 kts | 86° |
| 2026-05-06 21:31 | 39.08567 | -76.56013 | 7511 ft | 314 kts | 87° |
| 2026-05-06 21:31 | 39.08688 | -76.53188 | 8176 ft | 319 kts | 88° |
| 2026-05-06 21:32 | 39.08801 | -76.50323 | 8855 ft | 323 kts | 88° |
| 2026-05-06 21:32 | 39.09209 | -76.44485 | 10115 ft | 334 kts | 74° |
| 2026-05-06 21:32 | 39.09965 | -76.41590 | 10421 ft | 351 kts | 69° |
| 2026-05-06 21:33 | 39.10839 | -76.38553 | 10608 ft | 373 kts | 69° |
| 2026-05-06 21:33 | 39.11760 | -76.35342 | 10839 ft | 389 kts | 69° |
| 2026-05-06 21:33 | 39.12685 | -76.32029 | 11299 ft | 396 kts | 70° |
| 2026-05-06 21:33 | 39.13600 | -76.28665 | 11908 ft | 400 kts | 70° |
| 2026-05-06 21:34 | 39.14514 | -76.25266 | 12518 ft | 404 kts | 70° |
| 2026-05-06 21:34 | 39.15381 | -76.21805 | 13111 ft | 409 kts | 76° |
| 2026-05-06 21:34 | 39.15862 | -76.18179 | 13697 ft | 414 kts | 83° |
| 2026-05-06 21:34 | 39.16189 | -76.14475 | 14252 ft | 418 kts | 83° |
| 2026-05-06 21:35 | 39.16547 | -76.10737 | 14794 ft | 423 kts | 82° |
| 2026-05-06 21:35 | 39.16954 | -76.06963 | 15353 ft | 428 kts | 81° |
| 2026-05-06 21:35 | 39.17390 | -76.03154 | 15933 ft | 432 kts | 81° |
| 2026-05-06 21:35 | 39.17833 | -75.99308 | 16502 ft | 436 kts | 81° |
| 2026-05-06 21:36 | 39.18277 | -75.95427 | 17106 ft | 440 kts | 81° |
| 2026-05-06 21:36 | 39.18756 | -75.91526 | 17721 ft | 442 kts | 75° |
| 2026-05-06 21:36 | 39.19916 | -75.87889 | 18247 ft | 440 kts | 54° |
| 2026-05-06 21:36 | 39.21838 | -75.84882 | 18772 ft | 432 kts | 36° |
| 2026-05-06 21:37 | 39.24127 | -75.82354 | 19253 ft | 435 kts | 33° |
| 2026-05-06 21:37 | 39.26478 | -75.79864 | 19718 ft | 440 kts | 32° |
| 2026-05-06 21:37 | 39.28857 | -75.77346 | 20182 ft | 445 kts | 32° |
| 2026-05-06 21:37 | 39.31249 | -75.74781 | 20657 ft | 449 kts | 32° |
| 2026-05-06 21:38 | 39.33650 | -75.72170 | 21108 ft | 454 kts | 33° |
| 2026-05-06 21:38 | 39.36068 | -75.69516 | 21566 ft | 458 kts | 33° |
| 2026-05-06 21:38 | 39.38503 | -75.66830 | 22029 ft | 463 kts | 32° |
| 2026-05-06 21:38 | 39.40966 | -75.64114 | 22419 ft | 468 kts | 32° |
| 2026-05-06 21:39 | 39.43456 | -75.61369 | 22848 ft | 472 kts | 32° |
| 2026-05-06 21:39 | 39.45961 | -75.58610 | 23299 ft | 475 kts | 32° |
| 2026-05-06 21:39 | 39.48495 | -75.55827 | 23672 ft | 479 kts | 31° |
| 2026-05-06 21:39 | 39.51044 | -75.53028 | 24059 ft | 482 kts | 31° |
| 2026-05-06 21:40 | 39.53603 | -75.50211 | 24451 ft | 484 kts | 31° |
| 2026-05-06 21:40 | 39.56176 | -75.47375 | 24870 ft | 487 kts | 31° |
| 2026-05-06 21:40 | 39.58766 | -75.44517 | 25220 ft | 491 kts | 31° |
| 2026-05-06 21:40 | 39.61378 | -75.41633 | 25546 ft | 494 kts | 31° |
| 2026-05-06 21:41 | 39.63999 | -75.38738 | 25923 ft | 497 kts | 31° |
| 2026-05-06 21:41 | 39.66635 | -75.35824 | 26308 ft | 499 kts | 31° |
| 2026-05-06 21:41 | 39.69284 | -75.32895 | 26700 ft | 501 kts | 31° |
| 2026-05-06 21:41 | 39.71944 | -75.29949 | 27077 ft | 504 kts | 31° |
| 2026-05-06 21:42 | 39.74625 | -75.26977 | 27454 ft | 508 kts | 32° |
| 2026-05-06 21:42 | 39.77315 | -75.23992 | 27809 ft | 511 kts | 32° |
| 2026-05-06 21:42 | 39.79979 | -75.20887 | 28160 ft | 519 kts | 37° |
| 2026-05-06 21:42 | 39.82443 | -75.17405 | 28491 ft | 527 kts | 41° |
| 2026-05-06 21:43 | 39.84830 | -75.13751 | 28813 ft | 531 kts | 43° |
| 2026-05-06 21:43 | 39.87172 | -75.10101 | 29129 ft | 534 kts | 43° |
| 2026-05-06 21:43 | 39.89577 | -75.06393 | 29448 ft | 537 kts | 42° |
| 2026-05-06 21:43 | 39.92009 | -75.02715 | 29831 ft | 536 kts | 42° |
| 2026-05-06 21:44 | 39.94463 | -74.99041 | 30244 ft | 537 kts | 41° |
| 2026-05-06 21:44 | 39.96908 | -74.95359 | 30511 ft | 541 kts | 43° |
| 2026-05-06 21:44 | 39.99178 | -74.91396 | 30826 ft | 547 kts | 49° |
| 2026-05-06 21:44 | 40.01287 | -74.87257 | 31194 ft | 549 kts | 51° |
| 2026-05-06 21:45 | 40.03342 | -74.83062 | 31586 ft | 548 kts | 51° |
| 2026-05-06 21:45 | 40.05388 | -74.78872 | 31958 ft | 547 kts | 50° |
| 2026-05-06 21:45 | 40.07450 | -74.74710 | 32317 ft | 546 kts | 50° |
| 2026-05-06 21:45 | 40.09532 | -74.70570 | 32645 ft | 545 kts | 49° |
| 2026-05-06 21:46 | 40.11624 | -74.66446 | 33033 ft | 545 kts | 49° |
| 2026-05-06 21:46 | 40.13729 | -74.62309 | 33318 ft | 547 kts | 49° |
| 2026-05-06 21:46 | 40.15832 | -74.58164 | 33612 ft | 547 kts | 49° |
| 2026-05-06 21:46 | 40.17926 | -74.54021 | 33940 ft | 546 kts | 48° |
| 2026-05-06 21:47 | 40.20160 | -74.50051 | 34217 ft | 536 kts | 40° |
| 2026-05-06 21:47 | 40.22705 | -74.46572 | 34487 ft | 521 kts | 29° |
| 2026-05-06 21:47 | 40.25488 | -74.43593 | 34783 ft | 515 kts | 27° |
| 2026-05-06 21:47 | 40.28294 | -74.40694 | 35063 ft | 514 kts | 26° |
| 2026-05-06 21:48 | 40.31105 | -74.37789 | 35407 ft | 514 kts | 26° |
| 2026-05-06 21:48 | 40.33902 | -74.34864 | 35624 ft | 515 kts | 27° |
| 2026-05-06 21:48 | 40.36680 | -74.31919 | 35955 ft | 513 kts | 27° |
| 2026-05-06 21:48 | 40.39439 | -74.28966 | 36262 ft | 512 kts | 27° |
| 2026-05-06 21:49 | 40.42193 | -74.26007 | 36521 ft | 511 kts | 27° |
| 2026-05-06 21:49 | 40.44942 | -74.23050 | 36737 ft | 511 kts | 27° |
| 2026-05-06 21:49 | 40.47693 | -74.20090 | 36886 ft | 513 kts | 27° |
| 2026-05-06 21:49 | 40.50462 | -74.17112 | 36832 ft | 514 kts | 27° |
| 2026-05-06 21:50 | 40.55961 | -74.11178 | 36823 ft | 509 kts | 27° |
| 2026-05-06 21:50 | 40.60545 | -74.06234 | 36840 ft | 507 kts | 27° |
| 2026-05-06 21:51 | 40.65989 | -74.00357 | 36842 ft | 506 kts | 27° |
| 2026-05-06 21:51 | 40.71428 | -73.94472 | 36830 ft | 506 kts | 27° |
| 2026-05-06 21:52 | 40.76862 | -73.88576 | 36807 ft | 506 kts | 27° |
| 2026-05-06 21:52 | 40.82298 | -73.82665 | 36821 ft | 507 kts | 28° |
| 2026-05-06 21:53 | 40.87534 | -73.76244 | 36802 ft | 529 kts | 42° |
| 2026-05-06 21:53 | 40.91845 | -73.68237 | 36807 ft | 537 kts | 47° |
| 2026-05-06 21:54 | 40.96025 | -73.60056 | 36807 ft | 536 kts | 47° |
| 2026-05-06 21:54 | 41.00062 | -73.52283 | 36801 ft | 535 kts | 47° |
| 2026-05-06 21:55 | 41.04343 | -73.44147 | 36813 ft | 535 kts | 46° |
| 2026-05-06 21:55 | 41.08593 | -73.36073 | 36824 ft | 534 kts | 46° |
| 2026-05-06 21:56 | 41.12831 | -73.27987 | 36814 ft | 533 kts | 47° |
| 2026-05-06 21:56 | 41.17044 | -73.19919 | 36878 ft | 532 kts | 47° |
| 2026-05-06 21:57 | 41.21258 | -73.11829 | 36830 ft | 532 kts | 47° |
| 2026-05-06 21:57 | 41.25456 | -73.03748 | 36831 ft | 531 kts | 47° |
| 2026-05-06 21:58 | 41.29621 | -72.95640 | 36836 ft | 533 kts | 49° |
| 2026-05-06 21:58 | 41.33490 | -72.87206 | 36878 ft | 535 kts | 52° |
| 2026-05-06 21:59 | 41.37246 | -72.78650 | 36836 ft | 535 kts | 53° |
| 2026-05-06 21:59 | 41.41018 | -72.70107 | 36833 ft | 535 kts | 52° |
| 2026-05-06 22:00 | 41.44814 | -72.61585 | 36841 ft | 535 kts | 52° |
| 2026-05-06 22:00 | 41.48574 | -72.53151 | 36823 ft | 535 kts | 52° |
| 2026-05-06 22:01 | 41.52363 | -72.44619 | 36820 ft | 534 kts | 52° |
| 2026-05-06 22:01 | 41.56137 | -72.36090 | 36830 ft | 534 kts | 52° |
| 2026-05-06 22:02 | 41.59906 | -72.27547 | 36832 ft | 533 kts | 52° |
| 2026-05-06 22:02 | 41.63657 | -72.19020 | 36869 ft | 532 kts | 53° |
| 2026-05-06 22:03 | 41.67395 | -72.10500 | 36831 ft | 531 kts | 53° |
| 2026-05-06 22:03 | 41.70908 | -72.02470 | 36831 ft | 531 kts | 53° |
| 2026-05-06 22:04 | 41.74635 | -71.93927 | 36832 ft | 531 kts | 53° |
| 2026-05-06 22:04 | 41.78319 | -71.85460 | 36871 ft | 531 kts | 53° |
| 2026-05-06 22:05 | 41.82381 | -71.77301 | 36841 ft | 518 kts | 40° |
| 2026-05-06 22:05 | 41.87256 | -71.70260 | 36843 ft | 514 kts | 38° |
| 2026-05-06 22:06 | 41.92175 | -71.63279 | 36847 ft | 515 kts | 38° |
| 2026-05-06 22:06 | 41.97059 | -71.56208 | 36839 ft | 518 kts | 39° |
| 2026-05-06 22:07 | 42.01930 | -71.49058 | 36839 ft | 519 kts | 39° |
| 2026-05-06 22:07 | 42.06795 | -71.41888 | 36840 ft | 520 kts | 40° |
| 2026-05-06 22:08 | 42.11673 | -71.34692 | 36849 ft | 521 kts | 40° |
| 2026-05-06 22:08 | 42.16558 | -71.27472 | 36681 ft | 520 kts | 40° |
| 2026-05-06 22:09 | 42.18971 | -71.23892 | 36381 ft | 511 kts | 40° |
| 2026-05-06 22:09 | 42.21339 | -71.20372 | 36114 ft | 504 kts | 40° |
| 2026-05-06 22:09 | 42.23710 | -71.16858 | 35888 ft | 511 kts | 40° |
| 2026-05-06 22:09 | 42.26131 | -71.13275 | 35720 ft | 521 kts | 41° |
| 2026-05-06 22:10 | 42.28588 | -71.09626 | 35479 ft | 529 kts | 41° |
| 2026-05-06 22:10 | 42.31063 | -71.05934 | 35239 ft | 530 kts | 41° |
| 2026-05-06 22:10 | 42.33537 | -71.02241 | 34994 ft | 530 kts | 40° |
| 2026-05-06 22:10 | 42.36149 | -70.98786 | 34739 ft | 522 kts | 32° |
| 2026-05-06 22:11 | 42.39040 | -70.95920 | 34502 ft | 510 kts | 23° |
| 2026-05-06 22:11 | 42.42053 | -70.93402 | 34321 ft | 508 kts | 22° |
| 2026-05-06 22:11 | 42.45071 | -70.90931 | 34083 ft | 507 kts | 22° |
| 2026-05-06 22:11 | 42.48094 | -70.88457 | 33842 ft | 507 kts | 22° |
| 2026-05-06 22:12 | 42.51105 | -70.85972 | 33536 ft | 507 kts | 24° |
| 2026-05-06 22:12 | 42.54106 | -70.83467 | 33269 ft | 508 kts | 24° |
| 2026-05-06 22:12 | 42.57071 | -70.80856 | 33002 ft | 508 kts | 24° |
| 2026-05-06 22:12 | 42.60058 | -70.78306 | 32774 ft | 508 kts | 25° |
| 2026-05-06 22:13 | 42.63072 | -70.75784 | 32511 ft | 508 kts | 24° |
| 2026-05-06 22:13 | 42.66084 | -70.73271 | 32254 ft | 509 kts | 25° |
| 2026-05-06 22:13 | 42.69102 | -70.70738 | 32009 ft | 510 kts | 25° |
| 2026-05-06 22:13 | 42.71974 | -70.68311 | 31767 ft | 511 kts | 25° |
| 2026-05-06 22:14 | 42.74770 | -70.65934 | 31529 ft | 512 kts | 25° |
| 2026-05-06 22:14 | 42.77222 | -70.63843 | 31379 ft | 512 kts | 26° |
| 2026-05-06 22:14 | 42.79834 | -70.61611 | 31162 ft | 512 kts | 26° |
| 2026-05-06 22:14 | 42.82350 | -70.59456 | 30961 ft | 512 kts | 27° |
| 2026-05-06 22:15 | 42.84764 | -70.57388 | 30769 ft | 512 kts | 27° |
| 2026-05-06 22:15 | 42.87361 | -70.55160 | 30561 ft | 512 kts | 27° |
| 2026-05-06 22:15 | 42.90031 | -70.52869 | 30305 ft | 513 kts | 27° |
| 2026-05-06 22:15 | 42.92813 | -70.50479 | 30122 ft | 514 kts | 27° |
| 2026-05-06 22:16 | 42.95527 | -70.48147 | 29910 ft | 515 kts | 27° |
| 2026-05-06 22:16 | 42.98348 | -70.45719 | 29666 ft | 516 kts | 28° |
| 2026-05-06 22:16 | 43.01131 | -70.43322 | 29404 ft | 516 kts | 28° |
| 2026-05-06 22:16 | 43.03930 | -70.40909 | 29158 ft | 517 kts | 28° |
| 2026-05-06 22:17 | 43.06599 | -70.38604 | 28925 ft | 518 kts | 28° |
| 2026-05-06 22:17 | 43.09077 | -70.36464 | 28707 ft | 518 kts | 28° |
| 2026-05-06 22:17 | 43.11926 | -70.33998 | 28460 ft | 519 kts | 28° |
| 2026-05-06 22:17 | 43.14733 | -70.31568 | 28227 ft | 520 kts | 28° |
| 2026-05-06 22:18 | 43.17710 | -70.28987 | 27960 ft | 520 kts | 28° |
| 2026-05-06 22:18 | 43.20761 | -70.26339 | 27703 ft | 521 kts | 28° |
| 2026-05-06 22:18 | 43.23797 | -70.23701 | 27447 ft | 521 kts | 29° |
| 2026-05-06 22:18 | 43.26758 | -70.21124 | 27200 ft | 522 kts | 29° |
| 2026-05-06 22:19 | 43.29833 | -70.18446 | 26946 ft | 523 kts | 29° |
| 2026-05-06 22:19 | 43.32752 | -70.15901 | 26711 ft | 525 kts | 29° |
| 2026-05-06 22:19 | 43.35497 | -70.13504 | 26483 ft | 526 kts | 29° |
| 2026-05-06 22:19 | 43.38357 | -70.11005 | 26265 ft | 528 kts | 30° |
| 2026-05-06 22:20 | 43.41301 | -70.08429 | 26015 ft | 529 kts | 30° |
| 2026-05-06 22:20 | 43.44226 | -70.05866 | 25807 ft | 529 kts | 30° |
| 2026-05-06 22:20 | 43.47258 | -70.03206 | 25577 ft | 529 kts | 30° |
| 2026-05-06 22:20 | 43.50351 | -70.00489 | 25332 ft | 529 kts | 30° |
| 2026-05-06 22:21 | 43.53433 | -69.97779 | 25101 ft | 529 kts | 30° |
| 2026-05-06 22:21 | 43.56534 | -69.95048 | 24865 ft | 528 kts | 30° |
| 2026-05-06 22:21 | 43.59629 | -69.92320 | 24651 ft | 528 kts | 30° |
| 2026-05-06 22:21 | 43.62725 | -69.89587 | 24428 ft | 528 kts | 30° |
| 2026-05-06 22:22 | 43.65815 | -69.86856 | 24193 ft | 527 kts | 30° |
| 2026-05-06 22:22 | 43.68907 | -69.84121 | 23967 ft | 527 kts | 30° |
| 2026-05-06 22:22 | 43.71991 | -69.81389 | 23740 ft | 527 kts | 30° |
| 2026-05-06 22:22 | 43.75079 | -69.78651 | 23518 ft | 527 kts | 30° |
| 2026-05-06 22:23 | 43.78148 | -69.75924 | 23250 ft | 519 kts | 30° |
| 2026-05-06 22:23 | 43.81136 | -69.73262 | 22962 ft | 502 kts | 30° |
| 2026-05-06 22:23 | 43.84029 | -69.70680 | 22681 ft | 488 kts | 30° |
| 2026-05-06 22:23 | 43.86841 | -69.68170 | 22400 ft | 474 kts | 29° |
| 2026-05-06 22:24 | 43.89578 | -69.65725 | 22125 ft | 462 kts | 29° |
| 2026-05-06 22:24 | 43.92251 | -69.63338 | 21862 ft | 452 kts | 29° |
| 2026-05-06 22:24 | 43.94864 | -69.61002 | 21615 ft | 442 kts | 29° |
| 2026-05-06 22:24 | 43.97419 | -69.58716 | 21350 ft | 433 kts | 29° |
| 2026-05-06 22:25 | 43.99924 | -69.56473 | 21097 ft | 425 kts | 29° |
| 2026-05-06 22:25 | 44.02390 | -69.54264 | 20836 ft | 419 kts | 29° |
| 2026-05-06 22:25 | 44.04829 | -69.52076 | 20601 ft | 415 kts | 28° |
| 2026-05-06 22:25 | 44.07246 | -69.49907 | 20360 ft | 413 kts | 28° |
| 2026-05-06 22:26 | 44.09653 | -69.47744 | 20149 ft | 411 kts | 28° |
| 2026-05-06 22:26 | 44.12048 | -69.45589 | 19907 ft | 409 kts | 28° |
| 2026-05-06 22:26 | 44.14435 | -69.43439 | 19661 ft | 409 kts | 28° |
| 2026-05-06 22:26 | 44.16835 | -69.41277 | 19360 ft | 411 kts | 28° |
| 2026-05-06 22:27 | 44.19241 | -69.39106 | 18917 ft | 413 kts | 28° |
| 2026-05-06 22:27 | 44.21652 | -69.36927 | 18476 ft | 413 kts | 28° |
| 2026-05-06 22:27 | 44.24056 | -69.34751 | 17988 ft | 412 kts | 29° |
| 2026-05-06 22:27 | 44.26447 | -69.32584 | 17590 ft | 407 kts | 29° |
| 2026-05-06 22:28 | 44.28818 | -69.30435 | 17097 ft | 406 kts | 29° |
| 2026-05-06 22:28 | 44.31180 | -69.28292 | 16604 ft | 404 kts | 29° |
| 2026-05-06 22:28 | 44.33495 | -69.26190 | 16127 ft | 399 kts | 29° |
| 2026-05-06 22:28 | 44.35802 | -69.24090 | 15659 ft | 393 kts | 29° |
| 2026-05-06 22:29 | 44.38107 | -69.21991 | 15192 ft | 388 kts | 29° |
| 2026-05-06 22:29 | 44.40355 | -69.19943 | 14726 ft | 384 kts | 29° |
| 2026-05-06 22:29 | 44.42555 | -69.17939 | 14282 ft | 381 kts | 30° |
| 2026-05-06 22:29 | 44.44771 | -69.15919 | 13819 ft | 380 kts | 30° |
| 2026-05-06 22:30 | 44.46982 | -69.13901 | 13316 ft | 379 kts | 30° |
| 2026-05-06 22:30 | 44.49180 | -69.11891 | 12831 ft | 376 kts | 30° |
| 2026-05-06 22:30 | 44.51366 | -69.09891 | 12357 ft | 374 kts | 30° |
| 2026-05-06 22:30 | 44.53528 | -69.07909 | 12041 ft | 365 kts | 30° |
| 2026-05-06 22:31 | 44.55600 | -69.06004 | 11935 ft | 349 kts | 30° |
| 2026-05-06 22:31 | 44.56952 | -69.04760 | 11836 ft | 340 kts | 30° |
| 2026-05-06 22:31 | 44.58911 | -69.02959 | 11437 ft | 335 kts | 30° |
| 2026-05-06 22:31 | 44.60854 | -69.01178 | 11007 ft | 333 kts | 30° |
| 2026-05-06 22:32 | 44.62798 | -68.99399 | 10530 ft | 333 kts | 31° |
| 2026-05-06 22:32 | 44.64727 | -68.97626 | 10122 ft | 330 kts | 30° |
| 2026-05-06 22:32 | 44.66716 | -68.96082 | 9651 ft | 325 kts | 13° |
| 2026-05-06 22:32 | 44.68891 | -68.95674 | 9148 ft | 309 kts | 346° |
| 2026-05-06 22:33 | 44.70855 | -68.96503 | 8682 ft | 286 kts | 320° |
| 2026-05-06 22:33 | 44.72522 | -68.97941 | 8230 ft | 278 kts | 315° |
| 2026-05-06 22:33 | 44.73892 | -68.99719 | 7705 ft | 263 kts | 298° |
| 2026-05-06 22:33 | 44.75082 | -69.01680 | 7217 ft | 264 kts | 300° |
| 2026-05-06 22:34 | 44.76270 | -69.03606 | 6773 ft | 263 kts | 299° |
| 2026-05-06 22:34 | 44.77469 | -69.05544 | 6392 ft | 262 kts | 299° |
| 2026-05-06 22:34 | 44.78564 | -69.07311 | 6076 ft | 258 kts | 301° |
| 2026-05-06 22:34 | 44.79701 | -69.09233 | 5700 ft | 253 kts | 300° |
| 2026-05-06 22:35 | 44.80848 | -69.11120 | 5204 ft | 256 kts | 303° |
| 2026-05-06 22:35 | 44.82078 | -69.12938 | 4690 ft | 257 kts | 304° |
| 2026-05-06 22:35 | 44.83305 | -69.14732 | 4123 ft | 259 kts | 304° |
| 2026-05-06 22:35 | 44.84540 | -69.16504 | 3963 ft | 247 kts | 304° |
| 2026-05-06 22:36 | 44.85727 | -69.18165 | 3860 ft | 235 kts | 304° |
| 2026-05-06 22:36 | 44.86878 | -69.19742 | 3725 ft | 228 kts | 305° |
| 2026-05-06 22:36 | 44.88011 | -69.21284 | 3500 ft | 226 kts | 305° |
| 2026-05-06 22:36 | 44.89180 | -69.22806 | 3195 ft | 235 kts | 315° |
| 2026-05-06 22:37 | 44.90768 | -69.23631 | 3027 ft | 258 kts | 351° |
| 2026-05-06 22:37 | 44.92535 | -69.23218 | 3006 ft | 258 kts | 22° |
| 2026-05-06 22:37 | 44.94000 | -69.21874 | 2974 ft | 247 kts | 45° |
| 2026-05-06 22:37 | 44.95111 | -69.20081 | 2998 ft | 244 kts | 56° |
| 2026-05-06 22:38 | 44.95971 | -69.18009 | 2972 ft | 238 kts | 80° |
| 2026-05-06 22:38 | 44.96451 | -69.15804 | 2988 ft | 235 kts | 84° |
| 2026-05-06 22:38 | 44.96922 | -69.13634 | 2964 ft | 232 kts | 83° |
| 2026-05-06 22:38 | 44.97380 | -69.11472 | 2969 ft | 230 kts | 83° |
| 2026-05-06 22:39 | 44.97787 | -69.09240 | 3004 ft | 231 kts | 94° |
| 2026-05-06 22:39 | 44.97547 | -69.07196 | 2985 ft | 196 kts | 137° |
| 2026-05-06 22:39 | 44.96653 | -69.05894 | 2981 ft | 182 kts | 148° |
| 2026-05-06 22:39 | 44.95797 | -69.04636 | 2965 ft | 172 kts | 148° |
| 2026-05-06 22:40 | 44.95000 | -69.03451 | 2972 ft | 163 kts | 149° |
| 2026-05-06 22:40 | 44.94194 | -69.02284 | 2973 ft | 167 kts | 150° |
| 2026-05-06 22:40 | 44.93385 | -69.01114 | 2986 ft | 166 kts | 149° |
| 2026-05-06 22:40 | 44.92578 | -68.99945 | 2992 ft | 166 kts | 149° |
| 2026-05-06 22:41 | 44.90988 | -68.97643 | 2801 ft | 163 kts | 149° |
| 2026-05-06 22:41 | 44.90199 | -68.96502 | 2588 ft | 162 kts | 150° |
| 2026-05-06 22:41 | 44.89417 | -68.95371 | 2396 ft | 160 kts | 150° |
| 2026-05-06 22:42 | 44.88639 | -68.94245 | 2163 ft | 158 kts | 150° |
| 2026-05-06 22:42 | 44.87897 | -68.93167 | 1951 ft | 149 kts | 149° |
| 2026-05-06 22:42 | 44.87171 | -68.92120 | 1770 ft | 150 kts | 148° |
| 2026-05-06 22:42 | 44.86452 | -68.91080 | 1562 ft | 147 kts | 147° |
| 2026-05-06 22:43 | 44.85751 | -68.90064 | 1354 ft | 142 kts | 146° |
| 2026-05-06 22:43 | 44.85072 | -68.89081 | 1163 ft | 138 kts | 144° |
| 2026-05-06 22:43 | 44.84390 | -68.88095 | 963 ft | 143 kts | 141° |
| 2026-05-06 22:43 | 44.83711 | -68.87090 | 767 ft | 140 kts | 140° |
| 2026-05-06 22:44 | 44.83035 | -68.86108 | 582 ft | 139 kts | 141° |
| 2026-05-06 22:44 | 44.82357 | -68.85163 | 418 ft | 136 kts | 140° |
| 2026-05-06 22:44 | 44.81713 | -68.84210 | 210 ft | 129 kts | 140° |
| 2026-05-06 22:44 | 44.81151 | -68.83409 | 184 ft | 94 kts | 132° |
| 2026-05-06 22:45 | 44.80806 | -68.82903 | 182 ft | 51 kts | 134° |
| 2026-05-06 22:45 | 44.80595 | -68.82598 | 177 ft | 41 kts | 134° |
| 2026-05-06 22:45 | 44.80406 | -68.82325 | 175 ft | 34 kts | 134° |
| 2026-05-06 22:45 | 44.80321 | -68.82187 | 175 ft | 11 kts | 110° |
| 2026-05-06 22:46 | 44.80344 | -68.82091 | 174 ft | 11 kts | 46° |
| 2026-05-06 22:46 | 44.80399 | -68.82015 | 173 ft | 11 kts | 44° |
| 2026-05-06 22:46 | 44.80456 | -68.81937 | 173 ft | 13 kts | 44° |
| 2026-05-06 22:46 | 44.80528 | -68.81839 | 173 ft | 15 kts | 44° |
| 2026-05-06 22:47 | 44.80597 | -68.81757 | 173 ft | 9 kts | 18° |
| 2026-05-06 22:47 | 44.80653 | -68.81789 | 174 ft | 9 kts | 326° |
| 2026-05-06 22:47 | 44.80709 | -68.81804 | 174 ft | 6 kts | 356° |
| 2026-05-06 22:47 | 44.80748 | -68.81782 | 174 ft | 6 kts | 40° |
| 2026-05-06 22:48 | 44.80777 | -68.81744 | 174 ft | 3 kts | 44° |
| 2026-05-06 22:48 | 44.80780 | -68.81741 | 174 ft | 0 kts | 45° |